Time;durP1;ratioP1;P1;durP2;ratioP2;P2;SDS_P1;SDS_P2;PMS_P1;PMS_P2;Temp;Humidity;BMP_temperature;BMP_pressure;BME280_temperature;BME280_humidity;BME280_pressure;Samples;Min_cycle;Max_cycle;Signal;HPM_P1;HPM_P2
2023/01/20 00:01:42;;;;;;;54.65;19.48;;;;;;;-0.16;98.09;100914.28;6026445;23;20040;-43
2023/01/20 00:04:09;;;;;;;50.20;21.17;;;;;;;-0.16;98.11;100917.00;6029338;23;20035;-43
2023/01/20 00:06:35;;;;;;;44.25;20.23;;;;;;;-0.15;98.36;100921.34;6028454;23;20033;-46
2023/01/20 00:09:04;;;;;;;46.53;19.65;;;;;;;-0.17;98.24;100924.34;6036639;23;20067;-48
2023/01/20 00:11:31;;;;;;;47.95;19.83;;;;;;;-0.15;98.63;100924.06;6029482;23;20434;-43
2023/01/20 00:14:00;;;;;;;54.70;22.73;;;;;;;-0.15;98.42;100924.06;6027000;23;20084;-43
2023/01/20 00:16:28;;;;;;;56.55;19.73;;;;;;;-0.15;98.49;100916.72;6029085;23;20029;-43
2023/01/20 00:18:54;;;;;;;54.28;21.00;;;;;;;-0.14;98.50;100926.53;6028688;23;20821;-49
2023/01/20 00:21:22;;;;;;;48.00;21.85;;;;;;;-0.14;98.84;100931.16;6003216;23;20033;-44
2023/01/20 00:23:49;;;;;;;46.70;21.58;;;;;;;-0.13;98.78;100922.72;6028652;23;20099;-44
2023/01/20 00:26:21;;;;;;;47.17;20.27;;;;;;;-0.13;98.83;100933.59;6018181;23;20061;-43
2023/01/20 00:28:49;;;;;;;48.72;20.25;;;;;;;-0.14;98.87;100925.72;6025269;23;20033;-45
2023/01/20 00:31:18;;;;;;;45.75;21.30;;;;;;;-0.12;98.91;100928.97;6029485;23;20108;-44
2023/01/20 00:33:46;;;;;;;56.67;23.33;;;;;;;-0.12;98.88;100929.78;6028972;23;20075;-43
2023/01/20 00:36:14;;;;;;;64.15;20.70;;;;;;;-0.12;99.23;100931.69;6029206;23;20438;-44
2023/01/20 00:38:42;;;;;;;53.38;21.05;;;;;;;-0.13;99.08;100930.03;6044441;23;20112;-49
2023/01/20 00:41:09;;;;;;;59.28;22.02;;;;;;;-0.12;99.20;100931.69;6028994;23;20029;-43
2023/01/20 00:43:36;;;;;;;69.07;24.50;;;;;;;-0.12;99.17;100924.34;6028723;23;20537;-45
2023/01/20 00:46:04;;;;;;;56.75;23.35;;;;;;;-0.12;99.34;100928.97;6029251;23;20427;-43
2023/01/20 00:48:31;;;;;;;58.03;25.48;;;;;;;-0.11;99.29;100919.72;6028789;23;20424;-44
2023/01/20 00:50:59;;;;;;;63.90;22.48;;;;;;;-0.11;99.62;100919.72;6028993;23;20041;-44
2023/01/20 00:53:25;;;;;;;64.63;23.08;;;;;;;-0.11;99.47;100925.19;6028700;23;20112;-43
2023/01/20 00:55:52;;;;;;;65.68;23.17;;;;;;;-0.12;99.37;100928.97;6029034;23;20033;-48
2023/01/20 00:58:19;;;;;;;56.58;22.88;;;;;;;-0.13;99.44;100930.88;6028376;23;20721;-43
2023/01/20 01:00:46;;;;;;;56.70;24.58;;;;;;;-0.13;99.66;100927.31;6003477;23;20120;-44
2023/01/20 01:03:14;;;;;;;50.55;21.92;;;;;;;-0.13;99.72;100930.03;6030190;23;20064;-44
2023/01/20 01:05:41;;;;;;;70.20;24.45;;;;;;;-0.12;99.62;100923.53;6028917;23;20025;-48
2023/01/20 01:08:08;;;;;;;55.15;23.60;;;;;;;-0.11;99.71;100917.00;6034935;23;20418;-48
2023/01/20 01:10:35;;;;;;;66.97;26.30;;;;;;;-0.09;99.84;100928.44;6029000;23;20056;-51
2023/01/20 01:13:03;;;;;;;58.63;20.65;;;;;;;-0.10;99.91;100926.78;6003683;23;20033;-43
2023/01/20 01:15:30;;;;;;;56.97;20.90;;;;;;;-0.12;99.89;100923.53;6028190;23;20104;-45
2023/01/20 01:17:58;;;;;;;52.85;19.77;;;;;;;-0.12;100.00;100934.41;6029449;23;20480;-43
2023/01/20 01:20:27;;;;;;;56.30;20.40;;;;;;;-0.14;100.00;100925.72;6021433;23;20573;-44
2023/01/20 01:22:54;;;;;;;48.72;18.63;;;;;;;-0.13;100.00;100924.59;6029062;23;20116;-44
2023/01/20 01:25:21;;;;;;;53.20;22.13;;;;;;;-0.13;100.00;100925.44;6028749;23;20033;-45
2023/01/20 01:27:48;;;;;;;52.58;19.95;;;;;;;-0.15;100.00;100926.78;6028989;23;20032;-44
2023/01/20 01:30:15;;;;;;;49.20;19.45;;;;;;;-0.14;100.00;100925.72;6028010;23;20060;-45
2023/01/20 01:32:42;;;;;;;51.65;21.42;;;;;;;-0.15;100.00;100924.88;6029868;23;20053;-46
2023/01/20 01:35:09;;;;;;;52.45;21.55;;;;;;;-0.15;100.00;100930.34;6030690;23;20036;-48
2023/01/20 01:37:36;;;;;;;46.67;19.17;;;;;;;-0.16;100.00;100925.97;6027445;23;20470;-45
2023/01/20 01:40:03;;;;;;;47.17;19.58;;;;;;;-0.17;100.00;100931.69;6029642;23;20037;-44
2023/01/20 01:42:29;;;;;;;54.35;21.58;;;;;;;-0.18;100.00;100930.03;6030354;23;20040;-45
2023/01/20 01:45:11;;;;;;;55.25;21.52;;;;;;;-0.21;100.00;100936.03;6029562;23;20033;-44
2023/01/20 01:47:47;;;;;;;;;;;;;;;-0.23;100.00;100927.31;6030006;23;20419;-43
2023/01/20 01:50:21;;;;;;;45.15;19.58;;;;;;;-0.26;100.00;100931.41;6029604;23;19924;-44
2023/01/20 01:52:51;;;;;;;59.78;21.88;;;;;;;-0.28;100.00;100932.75;6030355;23;20033;-45
2023/01/20 01:55:21;;;;;;;50.33;22.35;;;;;;;-0.30;100.00;100924.06;6004781;23;20040;-45
2023/01/20 01:57:49;;;;;;;47.88;21.38;;;;;;;-0.32;100.00;100939.84;6029575;23;20133;-45
2023/01/20 02:00:16;;;;;;;53.10;22.63;;;;;;;-0.34;100.00;100942.81;6029745;23;20496;-44
2023/01/20 02:02:44;;;;;;;50.03;21.70;;;;;;;-0.33;100.00;100954.50;6032300;23;20033;-43
2023/01/20 02:05:13;;;;;;;44.55;21.40;;;;;;;-0.37;100.00;100937.09;6029519;23;20079;-44
2023/01/20 02:07:44;;;;;;;41.45;20.48;;;;;;;-0.39;100.00;100950.13;6024585;23;20025;-43
2023/01/20 02:10:11;;;;;;;38.53;20.35;;;;;;;-0.40;100.00;100954.78;6030538;23;20037;-44
2023/01/20 02:12:40;;;;;;;44.90;19.42;;;;;;;-0.40;100.00;100951.22;6029623;23;20043;-43
2023/01/20 02:15:07;;;;;;;40.13;18.75;;;;;;;-0.41;100.00;100952.31;6029498;23;20037;-51
2023/01/20 02:17:42;;;;;;;37.00;17.63;;;;;;;-0.41;100.00;100960.47;6004781;23;20037;-43
2023/01/20 02:20:20;;;;;;;35.63;18.38;;;;;;;-0.40;100.00;100967.56;6029171;23;20044;-44
2023/01/20 02:23:10;;;;;;;43.78;18.52;;;;;;;-0.42;100.00;100970.53;6028615;23;20044;-43
2023/01/20 02:25:46;;;;;;;32.13;16.70;;;;;;;-0.42;100.00;100969.69;6029167;23;20108;-44
2023/01/20 02:28:33;;;;;;;37.45;16.17;;;;;;;-0.42;100.00;100977.84;6030410;23;20033;-44
2023/01/20 02:31:38;;;;;;;33.50;16.85;;;;;;;-0.43;100.00;100970.81;6029734;23;20033;-44
2023/01/20 02:34:24;;;;;;;36.03;15.70;;;;;;;-0.42;100.00;100973.25;6029560;23;20029;-43
2023/01/20 02:36:58;;;;;;;32.28;17.08;;;;;;;-0.41;100.00;100974.06;6019334;23;20458;-43
2023/01/20 02:39:31;;;;;;;30.92;15.32;;;;;;;-0.41;100.00;100984.94;6018090;23;20039;-47
2023/01/20 02:42:09;;;;;;;40.95;16.85;;;;;;;-0.41;100.00;100980.31;6029615;23;20033;-43
2023/01/20 02:44:49;;;;;;;30.85;15.70;;;;;;;-0.41;100.00;100984.94;6048483;23;20039;-45
2023/01/20 02:47:30;;;;;;;28.48;15.73;;;;;;;-0.41;100.00;100984.94;6017165;23;20039;-44
2023/01/20 02:50:10;;;;;;;31.63;15.38;;;;;;;-0.42;100.00;100984.13;6030156;23;20029;-43
2023/01/20 02:52:43;;;;;;;33.42;14.18;;;;;;;-0.41;100.00;100991.22;6029908;23;20033;-44
2023/01/20 02:55:16;;;;;;;32.97;13.73;;;;;;;-0.40;100.00;100989.31;6029877;23;20775;-43
2023/01/20 02:57:47;;;;;;;26.92;14.52;;;;;;;-0.39;100.00;100993.66;6029058;23;20490;-43
2023/01/20 03:02:57;;;;;;;22.20;12.00;;;;;;;-0.41;100.00;100985.75;4968165;23;20485;-44
2023/01/20 03:05:45;;;;;;;30.80;13.73;;;;;;;-0.42;100.00;100991.44;4996880;28;20371;-43
2023/01/20 03:08:14;;;;;;;27.48;12.57;;;;;;;-0.44;100.00;100996.34;5034380;28;20595;-45
2023/01/20 03:10:44;;;;;;;23.48;12.20;;;;;;;-0.42;100.00;100994.16;5029675;28;20053;-44
2023/01/20 03:13:51;;;;;;;27.95;13.80;;;;;;;-0.42;100.00;100999.59;5029891;28;20142;-44
2023/01/20 03:16:21;;;;;;;23.30;12.57;;;;;;;-0.41;100.00;101007.53;4987776;28;20045;-47
2023/01/20 03:18:50;;;;;;;21.35;11.77;;;;;;;-0.41;100.00;101001.25;5029902;28;20041;-44
2023/01/20 03:21:18;;;;;;;22.52;13.10;;;;;;;-0.41;100.00;101003.97;5029723;28;20498;-43
2023/01/20 03:23:50;;;;;;;27.08;14.00;;;;;;;-0.42;100.00;101010.50;5029598;28;20096;-44
2023/01/20 03:26:19;;;;;;;21.42;11.00;;;;;;;-0.42;100.00;101010.50;5029941;28;20045;-43
2023/01/20 03:28:47;;;;;;;23.35;12.27;;;;;;;-0.43;100.00;101014.31;5029986;28;20042;-49
2023/01/20 03:31:19;;;;;;;26.40;14.05;;;;;;;-0.43;100.00;101008.88;5029080;28;20049;-43
2023/01/20 03:33:49;;;;;;;25.52;12.43;;;;;;;-0.44;100.00;101016.22;5030128;28;20076;-45
2023/01/20 03:36:17;;;;;;;23.55;11.82;;;;;;;-0.43;100.00;101020.56;5029697;28;20045;-43
2023/01/20 03:38:44;;;;;;;27.00;12.93;;;;;;;-0.43;100.00;101017.03;5041318;28;20049;-44
2023/01/20 03:41:39;;;;;;;26.25;13.52;;;;;;;-0.45;100.00;101005.59;5029555;28;20137;-44
2023/01/20 03:44:27;;;;;;;22.30;10.98;;;;;;;-0.44;100.00;101013.50;5019252;28;20044;-44
2023/01/20 03:47:17;;;;;;;19.88;10.00;;;;;;;-0.46;100.00;101014.84;5029265;28;20127;-47
2023/01/20 03:50:15;;;;;;;18.30;9.95;;;;;;;-0.46;100.00;101004.78;5029693;28;20049;-44
2023/01/20 03:53:04;;;;;;;19.52;9.10;;;;;;;-0.47;100.00;101008.56;5023890;28;20057;-48
2023/01/20 03:55:51;;;;;;;18.42;10.75;;;;;;;-0.46;100.00;101012.13;5028221;28;20052;-43
2023/01/20 03:58:25;;;;;;;24.33;9.80;;;;;;;-0.46;100.00;101004.78;5028955;28;20502;-43
2023/01/20 04:00:53;;;;;;;24.92;9.38;;;;;;;-0.45;100.00;101011.84;5026444;28;20482;-43
2023/01/20 04:03:27;;;;;;;17.13;9.20;;;;;;;-0.45;100.00;101002.91;5030146;28;20052;-43
2023/01/20 04:05:58;;;;;;;17.35;9.65;;;;;;;-0.46;100.00;101010.22;5018737;28;20050;-43
2023/01/20 04:08:29;;;;;;;17.75;9.65;;;;;;;-0.45;100.00;101008.34;5023852;28;20042;-44
2023/01/20 04:10:59;;;;;;;14.95;8.32;;;;;;;-0.44;100.00;101009.94;5021955;28;20410;-43
2023/01/20 04:13:27;;;;;;;19.40;9.85;;;;;;;-0.43;100.00;101017.03;5028714;28;20061;-43
2023/01/20 04:15:55;;;;;;;14.23;7.93;;;;;;;-0.41;100.00;101017.56;5028633;28;20482;-43
2023/01/20 04:18:23;;;;;;;15.80;8.55;;;;;;;-0.42;100.00;101022.19;5037943;28;20041;-43
2023/01/20 04:21:00;;;;;;;19.50;9.10;;;;;;;-0.41;100.00;101017.56;5026375;28;20079;-48
2023/01/20 04:23:27;;;;;;;19.38;9.15;;;;;;;-0.41;100.00;101017.56;5006526;28;20143;-45
2023/01/20 04:25:54;;;;;;;19.27;8.05;;;;;;;-0.43;100.00;101026.00;5026121;28;20075;-43
2023/01/20 04:28:20;;;;;;;15.15;7.95;;;;;;;-0.42;100.00;101018.66;5029054;28;20047;-45
2023/01/20 04:30:47;;;;;;;14.98;7.70;;;;;;;-0.42;100.00;101010.50;5010867;28;20597;-43
2023/01/20 04:33:14;;;;;;;14.70;6.57;;;;;;;-0.42;100.00;101015.94;5028548;28;20463;-48
2023/01/20 04:35:41;;;;;;;13.95;6.75;;;;;;;-0.45;100.00;101006.41;5002798;28;20063;-48
2023/01/20 04:38:07;;;;;;;13.27;6.65;;;;;;;-0.46;100.00;101007.50;5028575;28;20395;-43
2023/01/20 04:40:34;;;;;;;12.80;6.30;;;;;;;-0.45;100.00;101008.34;5017656;28;20041;-44
2023/01/20 04:43:01;;;;;;;10.65;6.03;;;;;;;-0.45;100.00;101002.91;5019365;28;20058;-45
2023/01/20 04:45:27;;;;;;;10.18;6.05;;;;;;;-0.45;100.00;101017.28;5028476;28;20053;-44
2023/01/20 04:47:54;;;;;;;26.40;7.18;;;;;;;-0.44;100.00;101013.50;5028289;28;20045;-44
2023/01/20 04:50:21;;;;;;;13.15;6.85;;;;;;;-0.43;100.00;101025.19;5024289;28;20147;-44
2023/01/20 04:52:47;;;;;;;13.40;6.47;;;;;;;-0.45;100.00;101021.94;5028082;28;20049;-45
2023/01/20 04:55:14;;;;;;;14.43;6.93;;;;;;;-0.47;100.00;101024.06;5028323;28;20080;-44
2023/01/20 04:57:41;;;;;;;11.98;6.03;;;;;;;-0.49;100.00;101021.63;5024131;28;20132;-43
2023/01/20 05:00:10;;;;;;;11.35;6.13;;;;;;;-0.52;100.00;101022.16;5026298;28;20409;-44
2023/01/20 05:02:37;;;;;;;11.82;7.50;;;;;;;-0.56;100.00;101020.25;5027811;28;20477;-44
2023/01/20 05:05:04;;;;;;;9.93;5.78;;;;;;;-0.58;100.00;101015.06;5010229;28;20049;-44
2023/01/20 05:07:30;;;;;;;9.10;5.40;;;;;;;-0.63;100.00;101010.41;5031434;28;20052;-49
2023/01/20 05:09:57;;;;;;;11.80;5.40;;;;;;;-0.68;100.00;101015.84;5025950;28;20410;-45
2023/01/20 05:12:24;;;;;;;12.68;5.30;;;;;;;-0.72;100.00;101014.75;5032292;28;20050;-44
2023/01/20 05:14:50;;;;;;;13.05;6.00;;;;;;;-0.75;100.00;101015.25;5021483;28;20049;-44
2023/01/20 05:17:17;;;;;;;12.13;5.45;;;;;;;-0.77;100.00;101014.69;5023118;28;20054;-46
2023/01/20 05:19:44;;;;;;;8.93;5.53;;;;;;;-0.84;100.00;101032.31;5025106;28;20108;-44
2023/01/20 05:22:10;;;;;;;10.85;6.20;;;;;;;-0.82;100.00;101030.19;5032156;28;20057;-47
2023/01/20 05:24:37;;;;;;;8.27;6.00;;;;;;;-0.83;100.00;101031.25;5032168;28;20467;-44
2023/01/20 05:27:04;;;;;;;15.07;5.82;;;;;;;-0.89;100.00;101046.69;5031965;28;20045;-43
2023/01/20 05:29:31;;;;;;;11.93;7.00;;;;;;;-0.88;100.00;101034.75;5046047;28;20049;-43
2023/01/20 05:31:57;;;;;;;15.75;6.43;;;;;;;-0.86;100.00;101038.03;5024651;28;20136;-43
2023/01/20 05:34:24;;;;;;;15.35;6.15;;;;;;;-0.87;100.00;101039.09;5028807;28;20080;-44
2023/01/20 05:36:52;;;;;;;11.15;6.10;;;;;;;-0.91;100.00;101040.72;5031029;28;20045;-43
2023/01/20 05:39:20;;;;;;;8.68;5.47;;;;;;;-0.95;100.00;101033.31;5023206;28;20049;-45
2023/01/20 05:41:46;;;;;;;12.68;6.22;;;;;;;-0.99;100.00;101037.66;5031049;28;20048;-44
2023/01/20 05:44:14;;;;;;;12.73;6.72;;;;;;;-1.02;100.00;101039.00;5031614;28;20054;-44
2023/01/20 05:46:41;;;;;;;13.70;6.97;;;;;;;-1.05;100.00;101038.69;5011029;28;20053;-46
2023/01/20 05:49:10;;;;;;;9.77;6.07;;;;;;;-1.03;100.00;101040.06;5017480;28;20046;-43
2023/01/20 05:51:37;;;;;;;10.82;5.82;;;;;;;-1.01;100.00;101046.09;5017663;28;20562;-47
2023/01/20 05:54:03;;;;;;;10.73;5.22;;;;;;;-1.01;100.00;101040.66;5013468;28;20049;-45
2023/01/20 05:56:31;;;;;;;11.48;5.95;;;;;;;-1.05;100.00;101042.25;5031039;28;20053;-47
2023/01/20 05:58:58;;;;;;;11.57;5.90;;;;;;;-1.05;100.00;101049.56;5031205;28;20501;-44
2023/01/20 06:01:25;;;;;;;11.85;6.18;;;;;;;-1.09;100.00;101057.44;5031114;28;20057;-44
2023/01/20 06:03:51;;;;;;;12.27;6.38;;;;;;;-1.12;100.00;101047.09;5026935;28;20069;-43
2023/01/20 06:06:19;;;;;;;12.63;6.53;;;;;;;-1.16;100.00;101048.69;5028477;28;20407;-44
2023/01/20 06:08:46;;;;;;;11.50;6.68;;;;;;;-1.19;100.00;101046.47;5024870;28;20049;-47
2023/01/20 06:11:13;;;;;;;9.82;5.93;;;;;;;-1.21;100.00;101045.94;5030638;28;20072;-46
2023/01/20 06:13:40;;;;;;;10.25;6.15;;;;;;;-1.17;100.00;101052.50;5031212;28;20372;-43
2023/01/20 06:16:07;;;;;;;15.27;6.97;;;;;;;-1.16;100.00;101048.69;5020021;28;20038;-44
2023/01/20 06:18:34;;;;;;;9.45;5.80;;;;;;;-1.16;100.00;101054.09;5019172;28;20058;-44
2023/01/20 06:21:00;;;;;;;12.00;5.60;;;;;;;-1.18;100.00;101055.44;5025873;28;20484;-43
2023/01/20 06:23:27;;;;;;;14.15;6.88;;;;;;;-1.24;100.00;101060.84;5023895;28;20044;-45
2023/01/20 06:26:12;;;;;;;13.57;6.32;;;;;;;-1.25;100.00;101066.56;5020057;28;20442;-44
2023/01/20 06:28:39;;;;;;;9.88;6.68;;;;;;;-1.24;100.00;101069.00;5030665;28;20049;-43
2023/01/20 06:31:09;;;;;;;12.18;6.55;;;;;;;-1.24;100.00;101077.13;5045624;28;20053;-46
2023/01/20 06:33:36;;;;;;;13.88;7.13;;;;;;;-1.24;100.00;101079.03;5030290;28;20085;-44
2023/01/20 06:36:04;;;;;;;13.07;7.57;;;;;;;-1.26;100.00;101079.31;5023322;28;20069;-44
2023/01/20 06:38:32;;;;;;;14.23;6.35;;;;;;;-1.29;100.00;101070.84;5020707;28;20073;-43
2023/01/20 06:41:05;;;;;;;11.65;5.22;;;;;;;-1.31;100.00;101079.25;5029589;28;20068;-45
2023/01/20 06:43:32;;;;;;;;;;;;;;;-1.33;100.00;101075.16;5008747;28;20060;-44
2023/01/20 06:46:01;;;;;;;10.00;5.93;;;;;;;-1.38;100.00;101067.78;5028000;28;19928;-43
2023/01/20 06:48:28;;;;;;;12.63;5.90;;;;;;;-1.40;100.00;101079.97;5030119;28;20548;-45
2023/01/20 06:51:12;;;;;;;12.65;6.65;;;;;;;-1.42;100.00;101076.72;5022281;28;20064;-46
2023/01/20 06:53:40;;;;;;;10.85;6.72;;;;;;;-1.47;100.00;101082.91;5031132;28;20053;-46
2023/01/20 06:56:09;;;;;;;9.95;5.00;;;;;;;-1.50;100.00;101072.56;5016893;28;20064;-43
2023/01/20 06:58:36;;;;;;;14.75;7.32;;;;;;;-1.54;100.00;101073.34;5023914;28;20164;-44
2023/01/20 07:01:07;;;;;;;17.38;6.10;;;;;;;-1.58;100.00;101077.63;5025108;28;20072;-44
2023/01/20 07:03:35;;;;;;;13.47;5.97;;;;;;;-1.57;100.00;101087.44;5030145;28;20077;-45
2023/01/20 07:06:14;;;;;;;11.45;5.53;;;;;;;-1.61;100.00;101081.69;5017913;28;20049;-41
2023/01/20 07:08:42;;;;;;;12.48;5.82;;;;;;;-1.64;100.00;101078.69;5030827;28;20041;-44
2023/01/20 07:11:11;;;;;;;13.68;5.72;;;;;;;-1.68;100.00;101078.38;5030282;28;20469;-45
2023/01/20 07:13:38;;;;;;;8.07;5.00;;;;;;;-1.65;100.00;101088.72;5024187;28;20052;-42
2023/01/20 07:16:05;;;;;;;10.35;5.55;;;;;;;-1.66;100.00;101097.09;5025321;28;20048;-44
2023/01/20 07:18:36;;;;;;;9.73;5.85;;;;;;;-1.66;100.00;101102.53;5029978;28;20053;-44
2023/01/20 07:21:03;;;;;;;9.77;6.00;;;;;;;-1.61;100.00;101097.16;5010041;28;20129;-44
2023/01/20 07:23:32;;;;;;;10.20;5.90;;;;;;;-1.62;100.00;101100.97;5029314;28;20049;-48
2023/01/20 07:26:04;;;;;;;11.73;6.35;;;;;;;-1.66;100.00;101099.81;5029135;28;20095;-44
2023/01/20 07:28:31;;;;;;;;;;;;;;;-1.68;100.00;101110.94;5010296;28;20046;-44
2023/01/20 07:31:08;;;;;;;9.63;5.05;;;;;;;-1.66;100.00;101107.97;5007476;28;19925;-43
2023/01/20 07:33:36;;;;;;;9.02;5.45;;;;;;;-1.69;100.00;101111.19;5005051;28;20132;-45
2023/01/20 07:36:04;;;;;;;9.25;5.38;;;;;;;-1.69;100.00;101119.31;5008008;28;20088;-45
2023/01/20 07:38:30;;;;;;;10.68;6.50;;;;;;;-1.69;100.00;101119.31;5014667;28;20045;-52
2023/01/20 07:41:02;;;;;;;9.63;5.72;;;;;;;-1.67;100.00;101117.19;4998919;28;20500;-45
2023/01/20 07:43:31;;;;;;;11.30;6.45;;;;;;;-1.68;100.00;101112.84;5004055;28;20053;-48
2023/01/20 07:46:00;;;;;;;12.45;6.85;;;;;;;-1.70;100.00;101107.66;5024605;28;20072;-46
2023/01/20 07:48:29;;;;;;;17.45;8.70;;;;;;;-1.66;100.00;101121.53;5018234;28;20041;-47
2023/01/20 07:51:01;;;;;;;10.77;6.38;;;;;;;-1.63;100.00;101130.00;5024133;28;20409;-45
2023/01/20 07:53:29;;;;;;;10.65;5.78;;;;;;;-1.64;100.00;101130.25;5029268;28;20037;-44
2023/01/20 07:56:00;;;;;;;11.27;6.05;;;;;;;-1.67;100.00;101122.63;5029421;28;20053;-44
2023/01/20 07:58:28;;;;;;;11.32;7.80;;;;;;;-1.68;100.00;101126.41;5028594;28;20372;-46
2023/01/20 08:00:55;;;;;;;16.55;8.20;;;;;;;-1.68;100.00;101126.41;5026333;28;20049;-42
2023/01/20 08:03:22;;;;;;;14.15;8.02;;;;;;;-1.75;100.00;101125.78;5001189;28;20132;-43
2023/01/20 08:05:52;;;;;;;13.25;7.95;;;;;;;-1.71;100.00;101126.91;5006991;28;20391;-45
2023/01/20 08:08:19;;;;;;;11.68;7.18;;;;;;;-1.70;100.00;101126.66;5019192;28;20152;-49
2023/01/20 08:10:52;;;;;;;12.35;7.05;;;;;;;-1.73;100.00;101129.06;5024518;28;20041;-49
2023/01/20 08:13:19;;;;;;;18.05;7.85;;;;;;;-1.72;100.00;101133.44;5007380;28;20053;-46
2023/01/20 08:15:46;;;;;;;17.58;7.63;;;;;;;-1.70;100.00;101128.56;5004443;28;20443;-44
2023/01/20 08:18:13;;;;;;;15.68;7.95;;;;;;;-1.71;100.00;101126.91;5005127;28;20059;-43
2023/01/20 08:20:40;;;;;;;16.83;7.43;;;;;;;-1.71;100.00;101133.16;5005699;28;20518;-46
2023/01/20 08:23:07;;;;;;;12.45;6.82;;;;;;;-1.77;100.00;101136.88;5009068;28;20132;-43
2023/01/20 08:25:34;;;;;;;14.10;8.02;;;;;;;-1.79;100.00;101146.34;4991791;28;20061;-42
2023/01/20 08:28:00;;;;;;;13.52;7.72;;;;;;;-1.79;100.00;101143.66;5009075;28;20041;-42
2023/01/20 08:30:30;;;;;;;14.27;7.88;;;;;;;-1.81;100.00;101154.75;5007235;28;20073;-43
2023/01/20 08:32:57;;;;;;;15.77;8.32;;;;;;;-1.75;100.00;101147.50;5004919;28;20069;-42
2023/01/20 08:35:23;;;;;;;16.65;8.43;;;;;;;-1.73;100.00;101150.78;5008175;28;20363;-42
2023/01/20 08:37:50;;;;;;;13.30;7.57;;;;;;;-1.72;100.00;101158.66;5007719;28;20525;-44
2023/01/20 08:40:17;;;;;;;17.98;8.25;;;;;;;-1.69;100.00;101160.03;5007422;28;20049;-44
2023/01/20 08:42:45;;;;;;;13.30;7.60;;;;;;;-1.69;100.00;101149.19;5012664;28;20064;-53
2023/01/20 08:45:11;;;;;;;11.70;7.38;;;;;;;-1.71;100.00;101148.63;5013360;28;20049;-47
2023/01/20 08:47:44;;;;;;;13.05;7.55;;;;;;;-1.66;100.00;101154.09;5009500;28;20037;-41
2023/01/20 08:50:13;;;;;;;12.68;6.38;;;;;;;-1.61;100.00;101154.16;5012896;28;20038;-44
2023/01/20 08:52:41;;;;;;;17.42;8.23;;;;;;;-1.59;100.00;101163.69;5013136;28;20069;-43
2023/01/20 08:55:09;;;;;;;14.40;8.63;;;;;;;-1.58;100.00;101156.38;5013155;28;20041;-46
2023/01/20 08:57:36;;;;;;;14.25;8.15;;;;;;;-1.54;100.00;101165.66;5013119;28;20477;-41
2023/01/20 09:00:08;;;;;;;17.48;8.48;;;;;;;-1.55;100.00;101159.41;5013466;28;20053;-47
2023/01/20 09:02:36;;;;;;;21.73;9.18;;;;;;;-1.52;100.00;101166.22;5026350;28;20068;-45
2023/01/20 09:05:04;;;;;;;19.65;9.90;;;;;;;-1.52;100.00;101174.34;5032518;28;20410;-43
2023/01/20 09:07:31;;;;;;;14.73;8.23;;;;;;;-1.55;100.00;101172.16;5039073;28;20516;-42
2023/01/20 09:09:57;;;;;;;18.55;8.93;;;;;;;-1.56;100.00;101167.81;5034189;28;20048;-46
2023/01/20 09:12:24;;;;;;;16.88;9.05;;;;;;;-1.56;100.00;101174.03;5035856;28;20049;-42
2023/01/20 09:14:51;;;;;;;16.90;9.90;;;;;;;-1.50;100.00;101180.34;5014318;28;20060;-42
2023/01/20 09:17:18;;;;;;;16.00;10.25;;;;;;;-1.47;100.00;101177.94;5032555;28;20046;-42
2023/01/20 09:19:44;;;;;;;16.90;8.93;;;;;;;-1.43;100.00;101189.94;5031353;28;20095;-43
2023/01/20 09:22:11;;;;;;;18.02;10.40;;;;;;;-1.35;100.00;101185.97;5032111;28;20053;-48
2023/01/20 09:24:39;;;;;;;15.52;8.18;;;;;;;-1.28;100.00;101186.56;5032366;28;20041;-44
2023/01/20 09:27:05;;;;;;;19.38;11.07;;;;;;;-1.25;100.00;101194.22;5032340;28;20056;-45
2023/01/20 09:29:33;;;;;;;15.65;8.63;;;;;;;-1.19;100.00;101190.44;5031368;28;20053;-43
2023/01/20 09:32:00;;;;;;;15.98;8.25;;;;;;;-1.12;100.00;101193.78;5031748;28;20064;-43
2023/01/20 09:34:29;;;;;;;16.95;7.72;;;;;;;-1.05;100.00;101205.25;5028710;28;20072;-42
2023/01/20 09:43:52;;;;;;;17.25;9.10;;;;;;;-0.97;100.00;101193.09;5044528;28;20505;-48
2023/01/20 09:45:43;;;;;;;22.73;10.98;;;;;;;-0.73;100.00;101203.38;4990601;28;20450;-43
2023/01/20 09:54:22;;;;;;;39.58;21.35;;;;;;;-0.57;100.00;101200.78;5031051;28;20052;-43
2023/01/20 09:56:51;;;;;;;32.33;15.60;;;;;;;-0.51;100.00;101205.19;5031462;28;20053;-44
2023/01/20 09:59:31;;;;;;;27.52;13.38;;;;;;;-0.40;100.00;101217.78;5029396;28;20175;-42
2023/01/20 10:02:02;;;;;;;21.30;11.52;;;;;;;-0.32;100.00;101211.84;5030080;28;20140;-43
2023/01/20 10:04:44;;;;;;;23.85;10.45;;;;;;;-0.25;100.00;101220.59;5029251;28;20049;-47
2023/01/20 10:07:14;;;;;;;32.65;13.35;;;;;;;-0.17;100.00;101222.81;5048480;28;20140;-48
2023/01/20 10:09:56;;;;;;;29.30;12.95;;;;;;;-0.10;100.00;101221.50;5031230;28;20120;-48
2023/01/20 10:12:28;;;;;;;16.37;9.93;;;;;;;-0.01;100.00;101227.28;5027872;28;20426;-43
2023/01/20 10:15:11;;;;;;;;;;;;;;;0.06;100.00;101227.84;5028475;28;20305;-44
2023/01/20 10:17:56;;;;;;;18.80;9.77;;;;;;;0.18;100.00;101236.66;5018608;28;20333;-42
2023/01/20 10:20:29;;;;;;;20.80;9.93;;;;;;;0.27;100.00;101237.75;5030451;28;20048;-42
2023/01/20 10:23:09;;;;;;;16.40;9.43;;;;;;;0.33;100.00;101225.81;5012883;28;20402;-43
2023/01/20 10:26:03;;;;;;;19.17;9.98;;;;;;;0.40;100.00;101237.28;5045768;28;20038;-44
2023/01/20 10:28:36;;;;;;;17.83;10.18;;;;;;;0.46;100.00;101235.41;5030689;28;20030;-42
2023/01/20 10:31:04;;;;;;;16.25;9.20;;;;;;;0.52;100.00;101232.44;5030719;28;20049;-42
2023/01/20 10:33:36;;;;;;;19.77;9.60;;;;;;;0.58;100.00;101234.06;5015828;28;20046;-42
2023/01/20 10:36:07;;;;;;;20.65;9.18;;;;;;;0.63;100.00;101235.19;5027951;28;20053;-43
2023/01/20 10:38:37;;;;;;;18.33;8.90;;;;;;;0.69;100.00;101239.59;5046993;28;20111;-42
2023/01/20 10:41:04;;;;;;;18.48;9.85;;;;;;;0.73;100.00;101243.41;5032388;28;20050;-43
2023/01/20 10:43:31;;;;;;;18.13;10.05;;;;;;;0.80;100.00;101241.22;5031745;28;20049;-46
2023/01/20 10:46:02;;;;;;;18.02;9.52;;;;;;;0.84;100.00;101258.69;5031427;28;20450;-43
2023/01/20 10:49:01;;;;;;;19.92;9.02;;;;;;;0.89;100.00;101258.72;5026261;28;20046;-42
2023/01/20 10:52:03;;;;;;;14.75;8.20;;;;;;;0.96;100.00;101253.81;5010827;28;20073;-46
2023/01/20 10:54:40;;;;;;;21.02;9.85;;;;;;;1.01;100.00;101260.09;5027742;28;20077;-42
2023/01/20 10:57:13;;;;;;;31.38;11.07;;;;;;;1.07;100.00;101263.66;5030081;28;20045;-45
2023/01/20 11:00:01;;;;;;;16.40;7.72;;;;;;;1.15;100.00;101272.13;5029423;28;20569;-49
2023/01/20 11:02:33;;;;;;;8.82;5.38;;;;;;;1.20;100.00;101268.59;5010647;28;20141;-42
2023/01/20 11:05:02;;;;;;;11.23;5.32;;;;;;;1.27;100.00;101269.16;5010293;28;20042;-44
2023/01/20 11:07:32;;;;;;;16.02;6.35;;;;;;;1.32;100.00;101266.44;5023185;28;20067;-43
2023/01/20 11:10:14;;;;;;;14.98;6.47;;;;;;;1.33;100.00;101268.06;5027330;28;20052;-42
2023/01/20 11:12:43;;;;;;;8.55;4.57;;;;;;;1.37;100.00;101263.72;5030176;28;20104;-43
2023/01/20 11:15:32;;;;;;;8.70;4.95;;;;;;;1.44;100.00;101268.88;5029955;28;20136;-42
2023/01/20 11:18:14;;;;;;;8.63;3.67;;;;;;;1.50;100.00;101282.28;5045212;28;20735;-44
2023/01/20 11:20:42;;;;;;;20.35;8.88;;;;;;;1.57;100.00;101282.81;5029822;28;20517;-42
2023/01/20 11:23:21;;;;;;;7.22;3.17;;;;;;;1.62;100.00;101285.53;5029568;28;20145;-42
2023/01/20 11:26:00;;;;;;;11.13;3.53;;;;;;;1.62;100.00;101290.16;5028623;28;20050;-43
2023/01/20 11:28:35;;;;;;;8.10;3.30;;;;;;;1.67;100.00;101291.00;5027500;28;20056;-43
2023/01/20 11:31:03;;;;;;;13.05;4.20;;;;;;;1.74;100.00;101269.72;5027438;28;20068;-44
2023/01/20 11:33:30;;;;;;;10.70;3.08;;;;;;;1.75;100.00;101278.69;5027547;28;20045;-41
2023/01/20 11:35:59;;;;;;;10.13;3.53;;;;;;;1.76;100.00;101274.91;5027432;28;20831;-42
2023/01/20 11:38:29;;;;;;;9.52;2.70;;;;;;;1.80;100.00;101273.28;5038075;28;20493;-42
2023/01/20 11:40:56;;;;;;;10.73;4.43;;;;;;;1.85;100.00;101281.44;5046987;28;20398;-43